Time;durP1;ratioP1;P1;durP2;ratioP2;P2;SDS_P1;SDS_P2;PMS_P1;PMS_P2;Temp;Humidity;BMP_temperature;BMP_pressure;BME280_temperature;BME280_humidity;BME280_pressure;Samples;Min_cycle;Max_cycle;Signal;HPM_P1;HPM_P2
2021/08/09 00:01:05;;;;;;;2.63;2.42;;;;;;;17.64;58.13;93730.75;5091277;28;20046;-60
2021/08/09 00:03:30;;;;;;;4.50;2.53;;;;;;;17.63;58.12;93720.91;5091431;28;20709;-60
2021/08/09 00:05:56;;;;;;;3.75;2.60;;;;;;;17.52;58.49;93711.03;5091621;28;20024;-60
2021/08/09 00:08:21;;;;;;;2.45;2.15;;;;;;;17.53;58.44;93723.69;5091268;28;20026;-61
2021/08/09 00:10:47;;;;;;;3.92;2.65;;;;;;;17.50;58.74;93718.53;5091595;28;20028;-60
2021/08/09 00:13:12;;;;;;;3.88;2.25;;;;;;;17.44;59.28;93719.56;5091454;28;20024;-63
2021/08/09 00:15:38;;;;;;;2.60;2.40;;;;;;;17.48;58.78;93719.09;5091555;28;20424;-62
2021/08/09 00:18:03;;;;;;;2.40;2.20;;;;;;;17.50;58.77;93721.31;5091368;28;20027;-63
2021/08/09 00:20:29;;;;;;;2.90;2.63;;;;;;;17.42;59.33;93713.09;5090521;28;20036;-63
2021/08/09 00:22:55;;;;;;;2.40;2.08;;;;;;;17.31;58.75;93708.81;5091294;28;20034;-63
2021/08/09 00:25:21;;;;;;;2.67;2.33;;;;;;;17.19;59.23;93687.69;5090943;28;20062;-60
2021/08/09 00:27:46;;;;;;;10.15;2.90;;;;;;;17.28;59.64;93715.56;5090841;28;20066;-61
2021/08/09 00:30:12;;;;;;;6.82;2.55;;;;;;;17.22;59.68;93712.34;5091117;28;20024;-62
2021/08/09 00:32:38;;;;;;;7.25;3.40;;;;;;;17.18;59.79;93714.84;5090933;28;20036;-61
2021/08/09 00:35:04;;;;;;;4.88;2.47;;;;;;;17.21;60.05;93715.72;5091009;28;20031;-61
2021/08/09 00:37:30;;;;;;;3.15;2.53;;;;;;;17.08;60.04;93716.16;5090241;28;20687;-60
2021/08/09 00:39:55;;;;;;;3.03;2.72;;;;;;;16.98;60.17;93716.13;5090076;28;20055;-61
2021/08/09 00:42:21;;;;;;;6.95;2.63;;;;;;;17.02;60.31;93710.13;5089388;28;20024;-61
2021/08/09 00:44:46;;;;;;;3.17;2.88;;;;;;;17.00;60.48;93716.28;5090703;28;20035;-61
2021/08/09 00:47:12;;;;;;;3.50;2.50;;;;;;;16.96;60.43;93713.19;5090747;28;20027;-60
2021/08/09 00:49:37;;;;;;;2.55;2.35;;;;;;;16.96;60.21;93715.97;5090642;28;20028;-60
2021/08/09 00:52:05;;;;;;;3.22;2.50;;;;;;;16.83;60.69;93707.31;5102925;28;20015;-61
2021/08/09 00:54:32;;;;;;;3.72;2.72;;;;;;;16.85;60.27;93715.81;5109983;28;20104;-61
2021/08/09 00:56:57;;;;;;;2.70;2.50;;;;;;;16.77;60.40;93696.41;5110862;28;20026;-61
2021/08/09 00:59:23;;;;;;;2.88;2.30;;;;;;;16.89;60.48;93716.13;5111042;28;20015;-60
2021/08/09 01:01:48;;;;;;;3.08;2.33;;;;;;;16.85;60.31;93710.25;5110738;28;20016;-60
2021/08/09 01:04:14;;;;;;;2.97;2.30;;;;;;;16.84;60.33;93711.56;5111001;28;20027;-60
2021/08/09 01:06:39;;;;;;;3.03;2.72;;;;;;;16.78;60.33;93719.47;5110686;28;20485;-60
2021/08/09 01:09:29;;;;;;;4.00;2.85;;;;;;;16.87;60.51;93719.47;5109494;28;20099;-60
2021/08/09 01:12:32;;;;;;;2.80;2.60;;;;;;;16.76;60.74;93719.31;5104043;28;20040;-60
2021/08/09 01:15:09;;;;;;;2.63;2.38;;;;;;;16.79;60.69;93721.66;5110665;28;20020;-59
2021/08/09 01:17:38;;;;;;;5.05;1.95;;;;;;;16.66;60.84;93725.59;5110898;28;20038;-59
2021/08/09 01:20:34;;;;;;;5.70;2.45;;;;;;;16.59;61.10;93728.50;5093472;28;20047;-59
2021/08/09 01:23:21;;;;;;;2.40;2.20;;;;;;;16.64;60.64;93725.44;5090229;28;20130;-58
2021/08/09 01:26:12;;;;;;;3.25;2.95;;;;;;;16.59;61.20;93723.66;5090519;28;20020;-58
2021/08/09 01:28:38;;;;;;;2.67;2.47;;;;;;;16.42;61.83;93720.19;5084464;28;20034;-58
2021/08/09 01:31:04;;;;;;;3.20;2.90;;;;;;;16.40;61.66;93726.34;5089237;28;20020;-58
2021/08/09 01:33:30;;;;;;;2.92;2.72;;;;;;;16.44;61.81;93726.66;5092470;28;20511;-58
2021/08/09 01:35:58;;;;;;;2.97;2.65;;;;;;;16.32;61.73;93725.72;5109490;28;20480;-60
2021/08/09 01:38:25;;;;;;;3.03;2.83;;;;;;;16.45;61.57;93721.81;5100654;28;20108;-63
2021/08/09 01:40:52;;;;;;;3.60;2.80;;;;;;;16.54;61.28;93719.09;5103331;28;20522;-64
2021/08/09 01:43:18;;;;;;;2.58;2.38;;;;;;;16.55;61.22;93711.47;5097055;28;20112;-62
2021/08/09 01:45:44;;;;;;;4.25;2.60;;;;;;;16.36;61.79;93719.72;5097774;28;20091;-64
2021/08/09 01:48:10;;;;;;;3.17;2.88;;;;;;;16.37;61.53;93721.91;5098639;28;20488;-62
2021/08/09 01:50:36;;;;;;;3.03;2.83;;;;;;;16.17;62.01;93698.09;5096893;28;20469;-61
2021/08/09 01:53:03;;;;;;;3.92;2.50;;;;;;;16.34;61.56;93731.47;5101522;28;20019;-61
2021/08/09 01:55:29;;;;;;;5.63;2.67;;;;;;;16.34;61.74;93728.69;5103042;28;20024;-62
2021/08/09 01:57:54;;;;;;;2.97;2.70;;;;;;;16.27;61.24;93732.28;5104607;28;20028;-62
2021/08/09 02:00:20;;;;;;;4.38;2.35;;;;;;;16.09;61.63;93711.38;5103072;28;20029;-62
2021/08/09 02:02:48;;;;;;;4.53;2.63;;;;;;;15.98;62.17;93734.22;5103012;28;20551;-61
2021/08/09 02:05:17;;;;;;;3.35;2.50;;;;;;;15.96;62.30;93719.38;5104969;28;20024;-64
2021/08/09 02:07:43;;;;;;;;;;;;;;;16.08;62.56;93742.59;5106491;28;20032;-64
2021/08/09 02:10:12;;;;;;;5.40;2.72;;;;;;;15.97;62.64;93743.13;5104287;28;19915;-59
2021/08/09 02:13:01;;;;;;;3.10;2.80;;;;;;;15.97;62.76;93735.50;5102888;28;20453;-59
2021/08/09 02:15:56;;;;;;;7.88;3.15;;;;;;;15.93;62.39;93735.19;5103961;28;20055;-59
2021/08/09 02:18:24;;;;;;;3.55;2.78;;;;;;;15.90;63.67;93748.22;5102027;28;20028;-59
2021/08/09 02:20:50;;;;;;;3.20;2.90;;;;;;;15.90;62.92;93753.03;5103325;28;20081;-60
2021/08/09 02:23:18;;;;;;;4.80;2.70;;;;;;;15.90;63.02;93750.25;5103470;28;20529;-60
2021/08/09 02:25:48;;;;;;;2.78;2.58;;;;;;;15.86;63.08;93745.13;5103022;28;20055;-60
2021/08/09 02:28:19;;;;;;;5.70;3.08;;;;;;;15.90;62.92;93753.03;5104250;28;20596;-60
2021/08/09 02:30:53;;;;;;;4.45;2.97;;;;;;;16.01;62.64;93754.56;5102752;28;20019;-59
2021/08/09 02:33:21;;;;;;;3.40;2.58;;;;;;;15.93;61.58;93757.47;5101304;28;20020;-60
2021/08/09 02:35:47;;;;;;;3.00;2.65;;;;;;;15.89;61.59;93759.94;5101374;28;20023;-59
2021/08/09 02:38:14;;;;;;;5.45;2.30;;;;;;;15.81;61.73;93762.06;5102471;28;20019;-60
2021/08/09 03:02:42;;;;;;;4.35;2.97;;;;;;;15.86;61.94;93775.00;5085062;28;21255;-60
2021/08/09 03:05:10;;;;;;;2.97;2.77;;;;;;;15.82;62.14;93769.13;5088525;28;20046;-60
2021/08/09 03:07:36;;;;;;;3.97;3.08;;;;;;;15.83;61.86;93773.38;5104942;28;20035;-60
2021/08/09 03:10:06;;;;;;;4.32;2.97;;;;;;;15.83;61.57;93779.69;5073733;28;20449;-59
2021/08/09 03:12:31;;;;;;;;;;;;;;;15.73;61.64;93778.13;5061981;28;20127;-59
2021/08/09 03:14:56;;;;;;;4.93;3.10;;;;;;;15.60;62.13;93776.44;5044781;28;20044;-60
2021/08/09 03:17:22;;;;;;;3.72;2.92;;;;;;;15.56;62.39;93778.88;5061517;28;20036;-61
2021/08/09 03:19:47;;;;;;;5.05;3.35;;;;;;;15.50;62.45;93783.97;5044695;28;20033;-61
2021/08/09 03:22:13;;;;;;;4.05;2.70;;;;;;;15.37;62.98;93780.75;5044680;28;20036;-60
2021/08/09 03:24:39;;;;;;;3.75;3.13;;;;;;;15.25;63.23;93785.31;5008702;28;20519;-59
2021/08/09 03:27:04;;;;;;;3.65;3.35;;;;;;;15.25;62.99;93782.53;5007607;28;20041;-59
2021/08/09 03:29:30;;;;;;;2.80;2.60;;;;;;;15.18;63.10;93787.59;5007643;28;20026;-59
2021/08/09 03:31:56;;;;;;;4.32;3.58;;;;;;;15.17;63.44;93785.38;5007271;28;20057;-59
2021/08/09 03:34:21;;;;;;;23.67;4.20;;;;;;;15.20;63.74;93784.25;5007038;28;20030;-59
2021/08/09 03:36:49;;;;;;;21.17;4.28;;;;;;;15.30;63.58;93776.00;5005968;28;20493;-59
2021/08/09 03:39:15;;;;;;;5.07;3.70;;;;;;;15.30;63.43;93782.28;5005341;28;20080;-59
2021/08/09 03:41:40;;;;;;;7.75;3.50;;;;;;;15.26;64.03;93784.75;5005010;28;20030;-58
2021/08/09 03:44:06;;;;;;;7.22;3.08;;;;;;;15.30;63.66;93781.56;5005604;28;20084;-59
2021/08/09 03:46:32;;;;;;;2.85;2.35;;;;;;;15.27;63.02;93771.59;5005542;28;20042;-58
2021/08/09 03:48:58;;;;;;;3.00;2.70;;;;;;;15.35;62.89;93777.78;5005448;28;20064;-58
2021/08/09 03:51:23;;;;;;;5.65;3.50;;;;;;;15.32;61.80;93778.94;5005257;28;20034;-59
2021/08/09 03:53:49;;;;;;;6.65;2.97;;;;;;;15.38;61.85;93796.84;5007064;28;20022;-59
2021/08/09 03:56:14;;;;;;;16.55;3.80;;;;;;;15.10;63.16;93797.31;5006801;28;20057;-60
2021/08/09 03:58:40;;;;;;;52.08;7.40;;;;;;;15.29;63.14;93794.72;5006408;28;20022;-60
2021/08/09 04:01:07;;;;;;;30.83;4.53;;;;;;;15.29;63.20;93796.78;5001892;28;20037;-59
2021/08/09 04:03:32;;;;;;;3.60;3.28;;;;;;;15.25;63.50;93805.50;4993696;28;20064;-59
2021/08/09 04:05:58;;;;;;;8.65;3.38;;;;;;;15.27;63.47;93796.63;4993968;28;20053;-59
2021/08/09 04:08:23;;;;;;;6.75;2.95;;;;;;;15.30;63.56;93796.19;4993934;28;20405;-60
2021/08/09 04:10:49;;;;;;;3.78;3.30;;;;;;;15.43;63.29;93795.91;4993491;28;20506;-60
2021/08/09 04:13:14;;;;;;;7.45;3.15;;;;;;;15.43;63.63;93801.47;4993507;28;20026;-61
2021/08/09 04:15:39;;;;;;;4.13;2.92;;;;;;;15.39;63.16;93798.34;4993769;28;20034;-60
2021/08/09 04:18:05;;;;;;;3.20;2.58;;;;;;;15.48;63.38;93796.97;4993452;28;20038;-60
2021/08/09 04:20:31;;;;;;;7.60;3.17;;;;;;;15.57;63.56;93807.47;4993687;28;20033;-63
2021/08/09 04:22:56;;;;;;;8.23;4.30;;;;;;;15.46;63.00;93788.47;4993608;28;20089;-61
2021/08/09 04:25:22;;;;;;;5.35;3.50;;;;;;;15.42;63.92;93802.75;4993579;28;20022;-59
2021/08/09 04:27:47;;;;;;;6.45;3.65;;;;;;;15.24;63.72;93778.28;4993450;28;20026;-60
2021/08/09 04:30:13;;;;;;;5.38;3.88;;;;;;;15.15;63.95;93782.44;4993013;28;20502;-59
2021/08/09 04:32:40;;;;;;;15.63;4.03;;;;;;;15.43;63.21;93803.50;4993114;28;20018;-59
2021/08/09 04:35:07;;;;;;;12.15;4.30;;;;;;;15.46;63.67;93805.16;4993069;28;20030;-60
2021/08/09 04:37:33;;;;;;;9.77;3.83;;;;;;;15.53;63.89;93809.91;4993063;28;20018;-62
2021/08/09 04:39:58;;;;;;;3.60;3.25;;;;;;;15.62;64.40;93807.22;4993002;28;20026;-61
2021/08/09 04:42:24;;;;;;;5.13;3.22;;;;;;;15.78;63.92;93799.44;4993291;28;20026;-61
2021/08/09 04:44:49;;;;;;;6.43;3.58;;;;;;;15.89;64.12;93808.03;4993219;28;20506;-61
2021/08/09 04:47:15;;;;;;;7.88;3.60;;;;;;;15.93;64.06;93807.59;4993235;28;20420;-62
2021/08/09 04:49:42;;;;;;;8.32;3.35;;;;;;;15.99;63.84;93799.72;4992792;28;20026;-61
2021/08/09 04:52:08;;;;;;;3.42;3.13;;;;;;;16.08;64.38;93803.88;4992994;28;20034;-62
2021/08/09 04:54:34;;;;;;;3.58;3.28;;;;;;;16.18;64.54;93811.00;4992903;28;20041;-62
2021/08/09 04:56:59;;;;;;;5.22;3.75;;;;;;;16.27;64.18;93810.31;4992710;28;20022;-61
2021/08/09 04:59:25;;;;;;;3.72;2.85;;;;;;;16.36;64.97;93812.44;4996736;28;20022;-61
2021/08/09 05:01:51;;;;;;;5.50;3.28;;;;;;;16.42;63.96;93817.72;4992467;28;20478;-61
2021/08/09 05:04:16;;;;;;;6.70;3.90;;;;;;;16.44;64.11;93812.31;4992859;28;20026;-61
2021/08/09 05:06:41;;;;;;;4.50;3.40;;;;;;;16.56;63.80;93816.09;4992872;28;20491;-62
2021/08/09 05:09:07;;;;;;;3.80;3.13;;;;;;;16.64;63.28;93808.34;4992346;28;20396;-61
2021/08/09 05:11:32;;;;;;;7.82;3.28;;;;;;;16.73;63.43;93806.91;4992490;28;20065;-63
2021/08/09 05:13:58;;;;;;;8.75;3.65;;;;;;;16.86;62.65;93809.31;4991710;28;20030;-62
2021/08/09 05:16:23;;;;;;;8.98;3.10;;;;;;;16.86;63.32;93815.63;4992646;28;20022;-61
2021/08/09 05:18:51;;;;;;;7.60;3.33;;;;;;;16.98;63.13;93816.53;4992300;28;20415;-61
2021/08/09 05:21:16;;;;;;;5.40;3.22;;;;;;;17.17;63.26;93819.38;4992342;28;20098;-61
2021/08/09 05:23:42;;;;;;;4.88;3.25;;;;;;;17.23;63.50;93821.91;4992519;28;20594;-61
2021/08/09 05:26:07;;;;;;;6.25;3.60;;;;;;;17.35;63.55;93817.97;4992417;28;20029;-62
2021/08/09 05:28:33;;;;;;;4.38;3.40;;;;;;;17.44;63.58;93824.88;4992417;28;20014;-63
2021/08/09 05:30:58;;;;;;;6.28;3.22;;;;;;;17.55;63.27;93831.97;4992304;28;20027;-63
2021/08/09 05:33:24;;;;;;;8.52;4.50;;;;;;;17.67;62.71;93827.31;4991976;28;20069;-60
2021/08/09 05:35:49;;;;;;;5.00;3.47;;;;;;;17.63;62.91;93813.06;4991961;28;20030;-60
2021/08/09 05:38:15;;;;;;;16.10;4.25;;;;;;;17.86;62.54;93825.28;4990984;28;20029;-61
2021/08/09 05:40:40;;;;;;;12.32;4.55;;;;;;;17.96;62.33;93826.00;4991912;28;20443;-63
2021/08/09 05:43:06;;;;;;;5.60;3.00;;;;;;;18.06;61.38;93826.72;4990905;28;20040;-63
2021/08/09 06:27:26;;;;;;;55.47;6.47;;;;;;;20.55;54.02;93811.50;5128315;27;21273;-64
2021/08/09 06:29:51;;;;;;;11.77;2.80;;;;;;;20.72;51.95;93818.84;5128692;27;20119;-64
2021/08/09 06:32:16;;;;;;;7.53;2.92;;;;;;;20.80;51.96;93819.34;5128321;27;20020;-62
2021/08/09 06:34:42;;;;;;;195.57;14.98;;;;;;;20.96;51.51;93823.84;5128091;27;20011;-63
2021/08/09 06:37:07;;;;;;;8.80;3.45;;;;;;;21.14;51.51;93819.41;5128624;27;20031;-63
2021/08/09 06:39:33;;;;;;;6.63;2.60;;;;;;;21.33;49.80;93807.16;5128205;27;20061;-64
2021/08/09 06:42:02;;;;;;;8.23;3.72;;;;;;;21.41;50.69;93806.94;5128260;27;20031;-63
2021/08/09 06:44:30;;;;;;;6.38;4.05;;;;;;;21.53;49.61;93797.16;5128087;27;20031;-63
2021/08/09 06:46:55;;;;;;;7.65;5.07;;;;;;;21.70;49.03;93804.47;5128100;27;20045;-63
2021/08/09 06:49:21;;;;;;;7.90;5.10;;;;;;;21.93;48.09;93798.81;5128134;27;20035;-63
2021/08/09 06:51:46;;;;;;;10.27;3.38;;;;;;;22.04;48.55;93797.31;5127974;27;20026;-63
2021/08/09 06:54:13;;;;;;;6.75;2.35;;;;;;;22.22;47.79;93803.97;5127958;27;20478;-62
2021/08/09 06:56:38;;;;;;;4.45;2.22;;;;;;;22.45;45.71;93804.59;5128192;27;20502;-61
2021/08/09 06:59:03;;;;;;;4.10;2.50;;;;;;;22.58;45.28;93800.38;5127804;27;20027;-61
2021/08/09 07:01:29;;;;;;;2.92;2.45;;;;;;;22.65;45.96;93802.19;5127885;27;20027;-61
2021/08/09 07:03:56;;;;;;;10.10;2.50;;;;;;;22.92;46.59;93795.88;5127683;27;20110;-62
2021/08/09 07:06:22;;;;;;;5.93;2.58;;;;;;;23.12;44.27;93797.72;5128010;27;20038;-62
2021/08/09 07:08:49;;;;;;;3.60;2.20;;;;;;;23.37;46.10;93791.28;5128012;27;20152;-62
2021/08/09 07:11:14;;;;;;;2.85;1.80;;;;;;;23.56;43.61;93799.34;5127599;27;20156;-62
2021/08/09 07:13:40;;;;;;;3.83;1.73;;;;;;;23.71;42.96;93798.72;5127475;27;20023;-64
2021/08/09 07:16:05;;;;;;;2.83;1.65;;;;;;;23.93;41.75;93805.44;5127445;27;20054;-63
2021/08/09 07:18:32;;;;;;;3.08;1.98;;;;;;;24.14;41.13;93798.03;5127525;27;20055;-64
2021/08/09 07:20:58;;;;;;;4.75;1.90;;;;;;;24.46;41.44;93805.97;5127495;27;20023;-63
2021/08/09 07:23:23;;;;;;;3.58;2.15;;;;;;;24.63;39.83;93807.47;5127281;27;20026;-63
2021/08/09 07:25:49;;;;;;;3.85;1.92;;;;;;;24.85;41.42;93802.91;5126685;27;20036;-65
2021/08/09 07:28:14;;;;;;;6.63;2.47;;;;;;;25.07;39.27;93803.94;5114694;27;20042;-64
2021/08/09 07:30:39;;;;;;;4.07;1.83;;;;;;;25.22;38.28;93803.22;5113878;28;20397;-63
2021/08/09 07:33:05;;;;;;;6.35;2.28;;;;;;;25.51;39.11;93810.91;5113467;28;20027;-64
2021/08/09 07:35:31;;;;;;;7.53;1.90;;;;;;;25.87;38.18;93792.69;5113685;28;20023;-64
2021/08/09 07:37:56;;;;;;;1.60;1.48;;;;;;;26.60;35.95;93802.09;5113797;28;20568;-64
2021/08/09 07:40:22;;;;;;;3.42;1.73;;;;;;;27.32;34.97;93809.88;5113688;28;20720;-66
2021/08/09 07:42:47;;;;;;;4.20;1.92;;;;;;;28.37;32.75;93803.03;5113680;28;20407;-66
2021/08/09 07:45:13;;;;;;;2.08;1.88;;;;;;;29.90;30.19;93807.06;5113231;28;20012;-63
2021/08/09 07:47:38;;;;;;;4.95;2.40;;;;;;;31.11;28.39;93808.06;5113545;28;20023;-61
2021/08/09 07:50:04;;;;;;;12.52;2.00;;;;;;;33.05;25.10;93809.06;5113158;28;20019;-65
2021/08/09 07:52:30;;;;;;;4.93;1.70;;;;;;;34.67;23.33;93807.59;5113367;28;20015;-65
2021/08/09 07:54:55;;;;;;;79.43;4.60;;;;;;;36.08;20.90;93814.34;5113038;28;20296;-65
2021/08/09 07:57:21;;;;;;;19.50;2.42;;;;;;;37.31;20.39;93817.47;5113038;28;20031;-62
2021/08/09 07:59:47;;;;;;;2.08;1.40;;;;;;;38.49;18.66;93818.59;5113318;28;20034;-62
2021/08/09 08:02:13;;;;;;;51.17;4.68;;;;;;;39.07;17.51;93815.34;5113119;28;20107;-61
2021/08/09 08:04:38;;;;;;;2.83;1.70;;;;;;;39.42;16.55;93816.53;5113200;28;20091;-62
2021/08/09 08:07:04;;;;;;;2.63;1.83;;;;;;;40.27;16.61;93820.72;5112938;28;20413;-60
2021/08/09 08:09:29;;;;;;;2.40;1.70;;;;;;;40.89;16.34;93819.22;5113256;28;20019;-62
2021/08/09 08:11:55;;;;;;;2.75;2.55;;;;;;;41.31;15.42;93819.28;5111952;28;20496;-63
2021/08/09 08:14:20;;;;;;;107.65;89.32;;;;;;;41.99;14.23;93819.56;5111876;28;20479;-61
2021/08/09 08:16:46;;;;;;;165.48;139.20;;;;;;;42.69;14.27;93814.53;5112894;28;20020;-60
2021/08/09 08:19:12;;;;;;;192.50;171.20;;;;;;;43.49;14.21;93818.47;5112899;28;20027;-64
2021/08/09 08:21:37;;;;;;;321.88;268.90;;;;;;;43.86;12.74;93808.84;5097124;28;20439;-66
2021/08/09 08:24:03;;;;;;;1889.25;999.90;;;;;;;43.41;14.00;93820.88;5096214;28;20031;-64
2021/08/09 08:26:28;;;;;;;1999.90;999.90;;;;;;;42.78;14.82;93818.69;5092021;28;20115;-66
2021/08/09 08:28:54;;;;;;;1999.90;999.90;;;;;;;42.65;14.21;93820.41;5092274;28;20020;-65
2021/08/09 08:31:19;;;;;;;1999.90;999.90;;;;;;;42.40;14.30;93811.50;5092035;28;20029;-62
2021/08/09 08:33:45;;;;;;;1999.90;999.90;;;;;;;42.39;14.29;93823.88;5091936;28;20023;-62
2021/08/09 08:36:10;;;;;;;1999.90;999.90;;;;;;;42.52;14.61;93822.88;5091847;28;20016;-63
2021/08/09 08:38:36;;;;;;;1999.90;999.90;;;;;;;42.88;14.19;93818.50;5091104;28;20077;-61
2021/08/09 08:41:06;;;;;;;1999.90;999.90;;;;;;;43.72;13.40;93820.84;5090917;28;20416;-62
2021/08/09 08:43:32;;;;;;;1999.90;999.90;;;;;;;44.18;13.17;93819.63;5094344;28;20032;-62
2021/08/09 08:46:03;;;;;;;1999.90;999.90;;;;;;;44.66;12.64;93817.53;5091057;28;20106;-61
2021/08/09 08:48:32;;;;;;;1999.90;999.90;;;;;;;44.70;12.19;93823.25;5091124;28;20424;-61
2021/08/09 08:51:00;;;;;;;1999.90;999.90;;;;;;;44.82;12.32;93820.69;5091026;28;20039;-59
2021/08/09 08:53:31;;;;;;;1999.90;999.90;;;;;;;45.47;12.02;93825.22;5090337;28;20028;-61
2021/08/09 08:55:58;;;;;;;1999.90;999.90;;;;;;;45.32;12.28;93821.34;5090276;28;20389;-58
2021/08/09 08:58:23;;;;;;;1999.90;999.90;;;;;;;45.38;11.84;93821.13;5093625;28;20031;-62
2021/08/09 09:00:49;;;;;;;1999.90;999.90;;;;;;;45.90;11.87;93821.59;5089255;28;20485;-58
2021/08/09 09:03:21;;;;;;;1999.90;999.90;;;;;;;45.97;11.34;93822.13;5108351;28;20051;-61
2021/08/09 09:05:56;;;;;;;1999.90;999.90;;;;;;;46.37;11.47;93820.72;5108420;28;20035;-62
2021/08/09 09:08:47;;;;;;;1999.90;999.90;;;;;;;46.43;10.96;93823.41;5108289;28;20042;-64
2021/08/09 09:11:22;;;;;;;1999.90;999.90;;;;;;;45.94;11.66;93820.78;5109657;28;20024;-61
2021/08/09 09:13:57;;;;;;;1996.30;999.90;;;;;;;46.82;11.16;93819.75;5110863;28;20050;-65
2021/08/09 09:16:23;;;;;;;1999.90;999.90;;;;;;;47.01;10.98;93823.41;5109413;27;20024;-64
2021/08/09 09:18:58;;;;;;;1888.95;999.90;;;;;;;46.60;11.22;93830.06;5109404;28;20027;-67
2021/08/09 09:21:26;;;;;;;1867.70;999.90;;;;;;;47.13;11.01;93829.50;5108911;28;20057;-67
2021/08/09 09:23:53;;;;;;;1799.82;999.90;;;;;;;46.95;10.87;93821.44;5106322;28;20042;-67
2021/08/09 09:26:24;;;;;;;1858.03;999.90;;;;;;;47.04;10.97;93824.78;5087888;28;20047;-66
2021/08/09 09:28:50;;;;;;;1750.63;999.90;;;;;;;46.57;10.69;93819.25;5088417;28;20531;-67
2021/08/09 09:31:27;;;;;;;1968.18;999.90;;;;;;;47.28;10.76;93815.03;5088418;28;20093;-67
2021/08/09 09:33:52;;;;;;;1832.93;999.90;;;;;;;47.24;10.58;93824.66;5088641;28;20031;-66
2021/08/09 09:36:21;;;;;;;1817.38;999.90;;;;;;;47.65;10.43;93817.19;5090233;28;20035;-68
2021/08/09 09:38:48;;;;;;;1999.90;999.90;;;;;;;45.52;11.24;93817.03;5089763;28;20024;-61
2021/08/09 09:41:14;;;;;;;1920.68;999.90;;;;;;;45.27;11.95;93811.28;5090058;28;20043;-63
2021/08/09 09:43:41;;;;;;;1999.90;999.90;;;;;;;45.94;11.41;93817.84;5090133;28;20048;-60
2021/08/09 09:46:07;;;;;;;1999.90;999.90;;;;;;;45.87;11.21;93822.44;5089672;28;20020;-62
2021/08/09 09:48:33;;;;;;;1999.90;999.90;;;;;;;44.37;12.39;93817.63;5089981;28;20035;-63
2021/08/09 09:51:16;;;;;;;1999.90;999.90;;;;;;;43.29;12.59;93812.47;5089675;28;20909;-65
2021/08/09 09:53:43;;;;;;;1999.90;999.90;;;;;;;41.26;14.14;93817.91;5089925;28;20034;-61
2021/08/09 09:56:09;;;;;;;1999.90;999.90;;;;;;;42.24;13.86;93811.81;5089894;28;20044;-67
2021/08/09 09:58:38;;;;;;;1999.90;999.90;;;;;;;42.71;13.76;93812.28;5089777;28;20527;-62
2021/08/09 10:01:05;;;;;;;1999.90;999.90;;;;;;;43.44;12.99;93808.44;5106815;28;20400;-64
2021/08/09 10:03:32;;;;;;;1999.90;999.90;;;;;;;44.05;12.36;93801.78;5110288;28;20020;-63
2021/08/09 10:05:59;;;;;;;1999.90;999.90;;;;;;;43.79;12.44;93805.38;5110155;28;20046;-61
2021/08/09 10:08:25;;;;;;;1999.90;999.90;;;;;;;44.14;12.17;93811.69;5109902;28;20744;-60
2021/08/09 10:10:53;;;;;;;1999.90;999.90;;;;;;;44.56;12.76;93803.97;5108629;28;20016;-61
2021/08/09 10:13:20;;;;;;;1999.90;999.90;;;;;;;44.40;11.58;93810.97;5101344;28;20027;-62
2021/08/09 10:15:53;;;;;;;1999.90;999.90;;;;;;;44.82;11.57;93806.13;5089727;28;20093;-62
2021/08/09 10:18:27;;;;;;;1999.90;999.90;;;;;;;44.69;12.18;93790.47;5089322;28;20077;-62
2021/08/09 10:20:57;;;;;;;1999.90;999.90;;;;;;;44.32;12.25;93808.28;5087818;28;20038;-62
2021/08/09 10:23:39;;;;;;;1999.90;999.90;;;;;;;42.70;13.05;93795.63;5088126;28;20031;-62
2021/08/09 10:26:06;;;;;;;1999.90;999.90;;;;;;;42.14;14.43;93800.44;5088784;28;20051;-57
2021/08/09 10:28:54;;;;;;;1999.90;999.90;;;;;;;43.18;13.62;93796.72;5105485;28;20027;-60
2021/08/09 10:31:35;;;;;;;1999.90;999.90;;;;;;;43.87;13.06;93789.91;5089077;28;20035;-58
2021/08/09 10:34:02;;;;;;;1999.90;999.90;;;;;;;44.40;12.61;93789.88;5089286;28;20103;-59
2021/08/09 10:36:28;;;;;;;1999.90;999.90;;;;;;;44.24;12.77;93796.88;5100439;28;20484;-65
2021/08/09 10:38:58;;;;;;;1999.90;999.90;;;;;;;44.26;12.21;93796.81;5087948;28;20035;-61
2021/08/09 10:41:24;;;;;;;1999.90;999.90;;;;;;;42.92;13.07;93795.88;5097902;28;20024;-59
2021/08/09 10:44:04;;;;;;;1999.90;999.90;;;;;;;43.33;12.73;93783.28;5099347;28;20031;-60
2021/08/09 10:46:41;;;;;;;1999.90;999.90;;;;;;;44.29;12.54;93789.44;5098393;28;20485;-59
2021/08/09 10:49:07;;;;;;;1999.90;999.90;;;;;;;43.02;13.23;93791.28;5098213;28;20066;-66
2021/08/09 10:51:51;;;;;;;1999.90;999.90;;;;;;;43.05;12.88;93802.13;5099043;28;20099;-64
2021/08/09 10:54:28;;;;;;;1999.90;999.90;;;;;;;43.03;13.22;93784.72;5099587;28;20020;-60
2021/08/09 10:56:55;;;;;;;1999.90;999.90;;;;;;;42.47;13.68;93783.81;5098855;28;20020;-61
2021/08/09 10:59:50;;;;;;;1999.90;999.90;;;;;;;41.39;13.98;93787.28;5098018;28;20401;-63
2021/08/09 11:02:17;;;;;;;1999.90;999.90;;;;;;;39.18;15.99;93761.16;5087476;28;20146;-63
2021/08/09 11:04:43;;;;;;;1999.90;999.90;;;;;;;40.41;16.04;93783.69;5101767;28;20023;-65
2021/08/09 11:07:16;;;;;;;1999.90;999.90;;;;;;;41.30;15.07;93779.47;5103411;28;20040;-61
2021/08/09 11:09:43;;;;;;;1999.90;999.90;;;;;;;39.75;16.09;93775.75;5102651;28;20020;-61
2021/08/09 11:12:16;;;;;;;1999.90;999.90;;;;;;;39.72;16.52;93783.72;5101755;28;20034;-61
2021/08/09 11:15:20;;;;;;;1999.90;999.90;;;;;;;40.28;15.79;93770.09;5101704;28;20119;-58
2021/08/09 11:17:47;;;;;;;1999.90;999.90;;;;;;;41.30;15.83;93765.00;5100842;28;20520;-62
2021/08/09 11:20:29;;;;;;;1999.90;999.90;;;;;;;40.90;15.47;93772.13;5101453;28;20035;-59
2021/08/09 11:23:10;;;;;;;1999.90;999.90;;;;;;;41.05;16.05;93766.81;5102376;28;20032;-58
2021/08/09 11:25:39;;;;;;;1999.90;999.90;;;;;;;41.42;15.18;93768.38;5104020;28;20032;-58
2021/08/09 11:28:07;;;;;;;1999.90;999.90;;;;;;;40.78;15.26;93763.63;5112737;28;20031;-61
2021/08/09 11:30:42;;;;;;;;;;;;;;;40.54;15.71;93738.66;5113351;28;20069;-58
2021/08/09 11:33:33;;;;;;;1999.90;999.90;;;;;;;40.57;15.33;93760.28;5112597;28;19961;-57
2021/08/09 11:36:05;;;;;;;1999.90;999.90;;;;;;;41.21;15.13;93760.78;5112858;28;20074;-58
2021/08/09 11:38:55;;;;;;;1999.90;999.90;;;;;;;41.47;15.35;93761.06;5112825;28;20053;-58
2021/08/09 11:41:26;;;;;;;1999.90;999.90;;;;;;;41.70;14.74;93757.75;5103566;28;20499;-57
2021/08/09 11:44:03;;;;;;;1999.90;999.90;;;;;;;42.00;15.02;93760.06;5102604;28;20059;-58
2021/08/09 11:46:29;;;;;;;1999.90;999.90;;;;;;;42.05;14.18;93753.44;5101261;28;20084;-60
2021/08/09 11:48:54;;;;;;;1999.90;999.90;;;;;;;42.06;15.06;93754.88;5102002;28;20036;-62
2021/08/09 11:51:28;;;;;;;1999.90;999.90;;;;;;;41.78;14.95;93751.81;5106060;28;20511;-57
2021/08/09 11:53:55;;;;;;;1999.90;999.90;;;;;;;41.52;15.06;93750.81;5105924;28;20039;-56
2021/08/09 11:56:30;;;;;;;1999.90;999.90;;;;;;;41.51;15.10;93755.19;5102644;28;20019;-59
2021/08/09 11:58:56;;;;;;;1999.90;999.90;;;;;;;41.60;15.67;93749.22;5098441;28;20073;-58
2021/08/09 12:01:35;;;;;;;1999.90;999.90;;;;;;;41.05;15.71;93758.13;5100547;28;20028;-58
2021/08/09 12:04:08;;;;;;;1999.90;999.90;;;;;;;40.49;15.26;93762.59;5099033;28;20023;-58
2021/08/09 12:06:49;;;;;;;1999.90;999.90;;;;;;;39.96;15.38;93757.44;5100373;28;20110;-60
2021/08/09 12:09:17;;;;;;;1999.90;999.90;;;;;;;38.90;16.45;93758.47;5106080;28;20115;-59
2021/08/09 12:11:44;;;;;;;1999.90;999.90;;;;;;;38.50;17.20;93756.56;5110603;27;20031;-61
2021/08/09 12:14:14;;;;;;;1999.90;999.90;;;;;;;38.26;18.33;93756.72;5110456;28;20032;-62
2021/08/09 12:16:44;;;;;;;1999.90;999.90;;;;;;;38.15;17.79;93755.31;5111676;28;20024;-57
2021/08/09 12:19:13;;;;;;;1999.90;999.90;;;;;;;37.84;18.29;93757.59;5092892;28;20085;-60
2021/08/09 12:21:38;;;;;;;1999.90;999.90;;;;;;;37.90;17.93;93757.59;5091544;28;20020;-62
2021/08/09 12:24:04;;;;;;;1999.90;999.90;;;;;;;37.93;18.27;93759.00;5091027;28;20385;-59
2021/08/09 12:26:33;;;;;;;1999.90;999.90;;;;;;;37.79;18.44;93751.09;5089621;28;20044;-60
2021/08/09 12:29:01;;;;;;;1999.90;999.90;;;;;;;37.43;18.99;93754.09;5091103;28;20548;-60